createdAt,value
2023-03-09T00:00:54.005Z,981.01
2023-03-09T00:01:54.013Z,981.01
2023-03-09T00:02:53.995Z,981.02
2023-03-09T00:03:54.125Z,981.04
2023-03-09T00:04:55.629Z,981.02
2023-03-09T00:05:53.962Z,981.01
2023-03-09T00:06:53.945Z,981.02
2023-03-09T00:07:53.934Z,981.03
2023-03-09T00:08:53.960Z,981.03
2023-03-09T00:09:53.896Z,981.03
2023-03-09T00:10:53.916Z,981.05
2023-03-09T00:11:53.898Z,981.02
2023-03-09T00:12:53.868Z,981.07
2023-03-09T00:13:53.909Z,981.08
2023-03-09T00:14:53.856Z,981.12
2023-03-09T00:15:53.927Z,981.16
2023-03-09T00:16:53.839Z,981.20
2023-03-09T00:17:53.854Z,981.25
2023-03-09T00:18:53.804Z,981.18
2023-03-09T00:19:53.839Z,981.09
2023-03-09T00:20:53.778Z,981.12
2023-03-09T00:21:53.780Z,981.16
2023-03-09T00:22:53.838Z,981.14
2023-03-09T00:23:53.751Z,981.20
2023-03-09T00:24:53.767Z,981.16
2023-03-09T00:25:53.730Z,981.15
2023-03-09T00:26:53.742Z,981.24
2023-03-09T00:27:53.718Z,981.32
2023-03-09T00:28:53.689Z,981.34
2023-03-09T00:29:53.689Z,981.35
2023-03-09T00:30:53.811Z,981.32
2023-03-09T00:31:53.691Z,981.30
2023-03-09T00:32:53.674Z,981.35
2023-03-09T00:33:53.669Z,981.34
2023-03-09T00:34:53.627Z,981.28
2023-03-09T00:35:53.699Z,981.26
2023-03-09T00:36:53.632Z,981.31
2023-03-09T00:37:53.611Z,981.29
2023-03-09T00:38:53.593Z,981.29
2023-03-09T00:39:53.598Z,981.37
2023-03-09T00:40:53.580Z,981.36
2023-03-09T00:41:53.582Z,981.34
2023-03-09T00:42:53.530Z,981.37
2023-03-09T00:43:53.520Z,981.33
2023-03-09T00:44:53.522Z,981.34
2023-03-09T00:45:53.516Z,981.31
2023-03-09T00:46:53.521Z,981.31
2023-03-09T00:47:53.486Z,981.31
2023-03-09T00:48:53.457Z,981.31
2023-03-09T00:49:53.494Z,981.33
2023-03-09T00:50:53.468Z,981.33
2023-03-09T00:51:53.440Z,981.31
2023-03-09T00:52:53.441Z,981.31
2023-03-09T00:53:53.417Z,981.26
2023-03-09T00:54:53.403Z,981.31
2023-03-09T00:55:53.403Z,981.24
2023-03-09T00:56:53.411Z,981.24
2023-03-09T00:57:53.377Z,981.22
2023-03-09T00:58:53.359Z,981.23
2023-03-09T00:59:53.356Z,981.28
2023-03-09T01:00:53.360Z,981.28
2023-03-09T01:01:53.407Z,981.27
2023-03-09T01:02:53.322Z,981.25
2023-03-09T01:03:55.676Z,981.31
2023-03-09T01:04:53.324Z,981.30
2023-03-09T01:05:53.322Z,981.38
2023-03-09T01:06:53.276Z,981.37
2023-03-09T01:07:53.293Z,981.37
2023-03-09T01:08:53.280Z,981.32
2023-03-09T01:09:53.233Z,981.30
2023-03-09T01:10:53.240Z,981.37
2023-03-09T01:11:53.209Z,981.37
2023-03-09T01:12:53.212Z,981.40
2023-03-09T01:13:53.192Z,981.47
2023-03-09T01:14:53.179Z,981.51
2023-03-09T01:15:53.288Z,981.57
2023-03-09T01:16:53.165Z,981.62
2023-03-09T01:17:53.154Z,981.59
2023-03-09T01:18:53.127Z,981.55
2023-03-09T01:19:53.139Z,981.52
2023-03-09T01:20:53.103Z,981.55
2023-03-09T01:21:53.238Z,981.58
2023-03-09T01:22:53.082Z,981.58
2023-03-09T01:23:53.084Z,981.56
2023-03-09T01:24:53.071Z,981.55
2023-03-09T01:25:53.063Z,981.62
2023-03-09T01:26:53.049Z,981.60
2023-03-09T01:27:53.051Z,981.61
2023-03-09T01:28:53.027Z,981.63
2023-03-09T01:29:53.019Z,981.67
2023-03-09T01:30:53.070Z,981.66
2023-03-09T01:31:53.002Z,981.70
2023-03-09T01:32:52.976Z,981.71
2023-03-09T01:33:52.979Z,981.76
2023-03-09T01:34:52.951Z,981.74
2023-03-09T01:35:53.071Z,981.79
2023-03-09T01:36:52.940Z,981.82
2023-03-09T01:37:52.966Z,981.87
2023-03-09T01:38:52.932Z,981.89
2023-03-09T01:39:52.898Z,981.97
2023-03-09T01:40:52.898Z,982.01
2023-03-09T01:41:52.901Z,982.05
2023-03-09T01:42:52.866Z,982.11
2023-03-09T01:43:52.858Z,982.15
2023-03-09T01:44:52.905Z,982.17
2023-03-09T01:45:52.833Z,982.14
2023-03-09T01:46:52.975Z,982.18
2023-03-09T01:47:52.810Z,982.11
2023-03-09T01:48:52.812Z,982.08
2023-03-09T01:49:52.804Z,982.05
2023-03-09T01:50:52.784Z,982.05
2023-03-09T01:51:52.854Z,982.13
2023-03-09T01:52:52.775Z,982.16
2023-03-09T01:53:52.763Z,982.19
2023-03-09T01:54:52.739Z,982.20
2023-03-09T01:55:52.728Z,982.25
2023-03-09T01:56:52.720Z,982.28
2023-03-09T01:57:52.744Z,982.27
2023-03-09T01:58:52.689Z,982.29
2023-03-09T01:59:52.690Z,982.26
2023-03-09T02:00:52.761Z,982.26
2023-03-09T02:01:52.654Z,982.25
2023-03-09T02:02:52.664Z,982.26
2023-03-09T02:03:52.666Z,982.25
2023-03-09T02:04:52.629Z,982.27
2023-03-09T02:05:52.630Z,982.27
2023-03-09T02:06:52.599Z,982.33
2023-03-09T02:07:52.608Z,982.33
2023-03-09T02:08:52.575Z,982.37
2023-03-09T02:09:52.602Z,982.33
2023-03-09T02:10:52.553Z,982.36
2023-03-09T02:11:52.579Z,982.34
2023-03-09T02:12:52.543Z,982.38
2023-03-09T02:13:52.531Z,982.38
2023-03-09T02:14:52.523Z,982.34
2023-03-09T02:15:52.508Z,982.36
2023-03-09T02:16:52.481Z,982.35
2023-03-09T02:17:52.491Z,982.39
2023-03-09T02:18:52.481Z,982.43
2023-03-09T02:19:52.453Z,982.40
2023-03-09T02:20:52.461Z,982.43
2023-03-09T02:21:52.425Z,982.43
2023-03-09T02:22:52.437Z,982.39
2023-03-09T02:23:52.417Z,982.40
2023-03-09T02:24:52.412Z,982.37
2023-03-09T02:25:52.408Z,982.36
2023-03-09T02:26:52.398Z,982.35
2023-03-09T02:27:52.453Z,982.36
2023-03-09T02:28:52.362Z,982.33
2023-03-09T02:29:52.346Z,982.29
2023-03-09T02:30:52.325Z,982.33
2023-03-09T02:31:52.390Z,982.38
2023-03-09T02:32:52.329Z,982.45
2023-03-09T02:33:52.319Z,982.47
2023-03-09T02:34:52.285Z,982.54
2023-03-09T02:35:52.274Z,982.65
2023-03-09T02:36:52.275Z,982.77
2023-03-09T02:37:52.280Z,982.81
2023-03-09T02:38:52.245Z,982.87
2023-03-09T02:39:52.259Z,982.94
2023-03-09T02:40:52.252Z,982.97
2023-03-09T02:41:52.229Z,983.01
2023-03-09T02:42:52.208Z,983.00
2023-03-09T02:43:52.245Z,983.03
2023-03-09T02:44:52.184Z,983.03
2023-03-09T02:45:52.251Z,983.07
2023-03-09T02:46:52.159Z,983.10
2023-03-09T02:47:52.172Z,983.18
2023-03-09T02:48:52.154Z,983.18
2023-03-09T02:49:52.129Z,983.17
2023-03-09T02:50:52.141Z,983.22
2023-03-09T02:51:52.122Z,983.21
2023-03-09T02:52:52.087Z,983.30
2023-03-09T02:53:52.076Z,983.29
2023-03-09T02:54:52.088Z,983.33
2023-03-09T02:55:52.063Z,983.35
2023-03-09T02:56:52.039Z,983.38
2023-03-09T02:57:52.075Z,983.42
2023-03-09T02:58:52.029Z,983.47
2023-03-09T02:59:52.035Z,983.53
2023-03-09T03:00:52.055Z,983.57
2023-03-09T03:01:51.988Z,983.55
2023-03-09T03:02:51.996Z,983.61
2023-03-09T03:03:51.964Z,983.66
2023-03-09T03:04:51.990Z,983.67
2023-03-09T03:05:51.943Z,983.68
2023-03-09T03:06:51.964Z,983.66
2023-03-09T03:07:51.922Z,983.71
2023-03-09T03:08:51.940Z,983.66
2023-03-09T03:09:51.911Z,983.67
2023-03-09T03:10:51.895Z,983.72
2023-03-09T03:11:51.890Z,983.72
2023-03-09T03:12:51.871Z,983.68
2023-03-09T03:13:51.889Z,983.72
2023-03-09T03:14:51.888Z,983.70
2023-03-09T03:15:51.842Z,983.65
2023-03-09T03:16:51.881Z,983.70
2023-03-09T03:17:51.833Z,983.69
2023-03-09T03:18:51.800Z,983.73
2023-03-09T03:19:51.801Z,983.76
2023-03-09T03:20:51.797Z,983.81
2023-03-09T03:21:51.782Z,983.87
2023-03-09T03:22:51.770Z,983.90
2023-03-09T03:23:51.765Z,983.90
2023-03-09T03:24:51.760Z,983.91
2023-03-09T03:25:51.732Z,983.94
2023-03-09T03:26:51.722Z,983.93
2023-03-09T03:27:51.704Z,983.92
2023-03-09T03:28:51.680Z,983.98
2023-03-09T03:29:51.719Z,983.99
2023-03-09T03:30:51.672Z,984.00
2023-03-09T03:31:51.682Z,984.04
2023-03-09T03:32:51.647Z,984.07
2023-03-09T03:33:51.634Z,984.13
2023-03-09T03:34:51.619Z,984.19
2023-03-09T03:35:51.667Z,984.18
2023-03-09T03:36:51.611Z,984.17
2023-03-09T03:37:51.586Z,984.17
2023-03-09T03:38:51.604Z,984.26
2023-03-09T03:39:51.578Z,984.28
2023-03-09T03:40:51.551Z,984.39
2023-03-09T03:41:51.552Z,984.40
2023-03-09T03:42:51.541Z,984.45
2023-03-09T03:43:51.533Z,984.43
2023-03-09T03:44:51.567Z,984.40
2023-03-09T03:45:51.568Z,984.45
2023-03-09T03:46:51.492Z,984.41
2023-03-09T03:47:51.498Z,984.43
2023-03-09T03:48:51.479Z,984.44
2023-03-09T03:49:51.459Z,984.43
2023-03-09T03:50:51.469Z,984.46
2023-03-09T03:51:51.462Z,984.48
2023-03-09T03:52:51.432Z,984.53
2023-03-09T03:53:51.440Z,984.50
2023-03-09T03:54:51.431Z,984.54
2023-03-09T03:55:51.407Z,984.59
2023-03-09T03:56:51.401Z,984.59
2023-03-09T03:57:51.360Z,984.59
2023-03-09T03:58:51.350Z,984.57
2023-03-09T03:59:51.383Z,984.57
2023-03-09T04:00:51.334Z,984.55
2023-03-09T04:01:51.350Z,984.61
2023-03-09T04:02:51.307Z,984.61
2023-03-09T04:03:51.360Z,984.64
2023-03-09T04:04:51.302Z,984.67
2023-03-09T04:05:51.308Z,984.65
2023-03-09T04:06:51.266Z,984.69
2023-03-09T04:07:51.266Z,984.66
2023-03-09T04:08:51.269Z,984.65
2023-03-09T04:09:51.239Z,984.69
2023-03-09T04:10:51.237Z,984.72
2023-03-09T04:11:51.218Z,984.72
2023-03-09T04:12:51.208Z,984.69
2023-03-09T04:13:51.202Z,984.80
2023-03-09T04:14:51.187Z,984.80
2023-03-09T04:15:51.258Z,984.81
2023-03-09T04:16:51.187Z,984.89
2023-03-09T04:17:51.187Z,984.87
2023-03-09T04:18:51.142Z,984.85
2023-03-09T04:19:51.145Z,984.90
2023-03-09T04:20:51.126Z,984.96
2023-03-09T04:21:51.106Z,985.02
2023-03-09T04:22:51.175Z,984.97
2023-03-09T04:23:51.076Z,985.02
2023-03-09T04:24:51.065Z,985.02
2023-03-09T04:25:51.065Z,985.01
2023-03-09T04:26:51.054Z,985.02
2023-03-09T04:27:51.065Z,985.04
2023-03-09T04:28:51.038Z,985.02
2023-03-09T04:29:51.016Z,985.02
2023-03-09T04:30:51.040Z,985.08
2023-03-09T04:31:50.998Z,985.06
2023-03-09T04:32:50.980Z,985.05
2023-03-09T04:33:51.018Z,985.10
2023-03-09T04:34:50.960Z,985.18
2023-03-09T04:35:50.976Z,985.20
2023-03-09T04:36:50.929Z,985.17
2023-03-09T04:37:50.920Z,985.12
2023-03-09T04:38:50.905Z,985.22
2023-03-09T04:39:50.926Z,985.18
2023-03-09T04:40:50.901Z,985.20
2023-03-09T04:41:50.887Z,985.16
2023-03-09T04:42:50.883Z,985.19
2023-03-09T04:43:50.871Z,985.20
2023-03-09T04:44:50.842Z,985.16
2023-03-09T04:45:50.865Z,985.10
2023-03-09T04:46:50.827Z,985.12
2023-03-09T04:47:50.806Z,985.14
2023-03-09T04:48:50.791Z,985.19
2023-03-09T04:49:50.804Z,985.10
2023-03-09T04:50:50.788Z,985.14
2023-03-09T04:51:50.775Z,985.11
2023-03-09T04:52:50.765Z,985.15
2023-03-09T04:53:51.356Z,985.16
2023-03-09T04:54:50.735Z,985.21
2023-03-09T04:55:50.750Z,985.17
2023-03-09T04:56:50.699Z,985.16
2023-03-09T04:57:50.728Z,985.18
2023-03-09T04:58:50.685Z,985.20
2023-03-09T04:59:50.687Z,985.19
2023-03-09T05:00:50.660Z,985.22
2023-03-09T05:01:50.674Z,985.22
2023-03-09T05:02:50.692Z,985.23
2023-03-09T05:03:50.652Z,985.26
2023-03-09T05:04:50.613Z,985.25
2023-03-09T05:05:50.637Z,985.24
2023-03-09T05:06:50.621Z,985.18
2023-03-09T05:07:50.586Z,985.24
2023-03-09T05:08:50.602Z,985.23
2023-03-09T05:09:50.580Z,985.26
2023-03-09T05:10:50.556Z,985.24
2023-03-09T05:11:50.557Z,985.29
2023-03-09T05:12:50.567Z,985.33
2023-03-09T05:13:50.564Z,985.35
2023-03-09T05:14:50.512Z,985.42
2023-03-09T05:15:50.525Z,985.47
2023-03-09T05:16:50.521Z,985.52
2023-03-09T05:17:50.510Z,985.53
2023-03-09T05:18:50.573Z,985.57
2023-03-09T05:19:50.448Z,985.54
2023-03-09T05:20:50.439Z,985.60
2023-03-09T05:21:50.450Z,985.55
2023-03-09T05:22:50.419Z,985.56
2023-03-09T05:23:50.432Z,985.57
2023-03-09T05:24:50.412Z,985.56
2023-03-09T05:25:50.386Z,985.60
2023-03-09T05:26:50.379Z,985.64
2023-03-09T05:27:50.380Z,985.66
2023-03-09T05:28:50.366Z,985.66
2023-03-09T05:29:50.361Z,985.61
2023-03-09T05:30:50.339Z,985.62
2023-03-09T05:31:50.321Z,985.61
2023-03-09T05:32:50.331Z,985.63
2023-03-09T05:33:50.307Z,985.65
2023-03-09T05:34:50.295Z,985.71
2023-03-09T05:35:50.318Z,985.68
2023-03-09T05:36:52.114Z,985.63
2023-03-09T05:37:50.298Z,985.74
2023-03-09T05:38:50.253Z,985.75
2023-03-09T05:39:50.236Z,985.72
2023-03-09T05:40:50.228Z,985.64
2023-03-09T05:41:50.983Z,985.70
2023-03-09T05:42:50.230Z,985.73
2023-03-09T05:43:50.202Z,985.71
2023-03-09T05:44:50.196Z,985.76
2023-03-09T05:45:50.174Z,985.80
2023-03-09T05:46:50.242Z,985.75
2023-03-09T05:47:50.139Z,985.75
2023-03-09T05:48:50.142Z,985.71
2023-03-09T05:49:50.128Z,985.76
2023-03-09T05:50:50.122Z,985.70
2023-03-09T05:51:50.112Z,985.75
2023-03-09T05:52:50.090Z,985.75
2023-03-09T05:53:50.111Z,985.73
2023-03-09T05:54:50.088Z,985.78
2023-03-09T05:55:50.065Z,985.85
2023-03-09T05:56:50.063Z,985.86
2023-03-09T05:57:50.030Z,985.85
2023-03-09T05:58:50.053Z,985.83
2023-03-09T05:59:50.019Z,985.84
2023-03-09T06:00:50.011Z,985.90
2023-03-09T06:01:50.008Z,985.94
2023-03-09T06:02:50.061Z,985.99
2023-03-09T06:03:50.018Z,985.98
2023-03-09T06:04:49.976Z,985.93
2023-03-09T06:05:49.952Z,985.90
2023-03-09T06:06:49.961Z,985.87
2023-03-09T06:07:49.919Z,985.87
2023-03-09T06:08:49.932Z,985.85
2023-03-09T06:09:50.014Z,985.80
2023-03-09T06:10:49.887Z,985.83
2023-03-09T06:11:49.865Z,985.84
2023-03-09T06:12:49.913Z,985.86
2023-03-09T06:13:49.905Z,985.86
2023-03-09T06:14:49.848Z,985.88
2023-03-09T06:15:49.816Z,985.88
2023-03-09T06:16:49.879Z,985.89
2023-03-09T06:17:49.848Z,985.90
2023-03-09T06:18:49.827Z,985.92
2023-03-09T06:19:49.798Z,985.94
2023-03-09T06:20:49.786Z,986.02
2023-03-09T06:21:49.768Z,985.98
2023-03-09T06:22:49.750Z,985.88
2023-03-09T06:23:49.752Z,986.04
2023-03-09T06:24:49.748Z,986.26
2023-03-09T06:25:49.724Z,986.35
2023-03-09T06:26:49.738Z,986.30
2023-03-09T06:27:49.719Z,986.30
2023-03-09T06:28:49.684Z,986.26
2023-03-09T06:29:49.676Z,986.22
2023-03-09T06:30:49.649Z,986.26
2023-03-09T06:31:49.658Z,986.29
2023-03-09T06:32:49.646Z,986.44
2023-03-09T06:33:49.631Z,986.45
2023-03-09T06:34:49.663Z,986.46
2023-03-09T06:35:49.633Z,986.51
2023-03-09T06:36:49.622Z,986.47
2023-03-09T06:37:49.630Z,986.53
2023-03-09T06:38:49.565Z,986.44
2023-03-09T06:39:49.544Z,986.41
2023-03-09T06:40:49.577Z,986.43
2023-03-09T06:41:49.629Z,986.47
2023-03-09T06:42:49.532Z,986.53
2023-03-09T06:43:49.559Z,986.61
2023-03-09T06:44:49.499Z,986.68
2023-03-09T06:45:49.491Z,986.66
2023-03-09T06:46:49.531Z,986.65
2023-03-09T06:47:49.467Z,986.63
2023-03-09T06:48:49.478Z,986.64
2023-03-09T06:49:49.515Z,986.65
2023-03-09T06:50:49.443Z,986.73
2023-03-09T06:51:49.453Z,986.80
2023-03-09T06:52:49.449Z,986.83
2023-03-09T06:53:49.401Z,986.77
2023-03-09T06:54:49.403Z,986.75
2023-03-09T06:55:49.429Z,986.66
2023-03-09T06:56:49.396Z,986.72
2023-03-09T06:57:49.397Z,986.74
2023-03-09T06:58:49.345Z,986.78
2023-03-09T06:59:49.355Z,986.78
2023-03-09T07:00:49.404Z,986.75
2023-03-09T07:01:50.278Z,986.72
2023-03-09T07:02:49.313Z,986.71
2023-03-09T07:03:49.405Z,986.74
2023-03-09T07:04:49.301Z,986.79
2023-03-09T07:05:49.294Z,986.78
2023-03-09T07:06:49.260Z,986.81
2023-03-09T07:07:49.329Z,986.81
2023-03-09T07:08:49.242Z,986.83
2023-03-09T07:09:49.337Z,986.88
2023-03-09T07:10:49.260Z,986.82
2023-03-09T07:11:49.226Z,986.85
2023-03-09T07:12:49.220Z,986.83
2023-03-09T07:13:49.236Z,986.85
2023-03-09T07:14:49.236Z,986.91
2023-03-09T07:15:49.188Z,986.92
2023-03-09T07:16:49.267Z,987.04
2023-03-09T07:17:49.145Z,987.05
2023-03-09T07:18:49.154Z,986.99
2023-03-09T07:19:49.122Z,987.00
2023-03-09T07:20:49.129Z,987.07
2023-03-09T07:21:49.110Z,987.14
2023-03-09T07:22:49.123Z,987.23
2023-03-09T07:23:49.108Z,987.23
2023-03-09T07:24:49.117Z,987.27
2023-03-09T07:25:49.136Z,987.29
2023-03-09T07:26:49.210Z,987.22
2023-03-09T07:27:49.031Z,987.30
2023-03-09T07:28:49.035Z,987.32
2023-03-09T07:29:49.051Z,987.28
2023-03-09T07:30:49.012Z,987.40
2023-03-09T07:31:49.071Z,987.35
2023-03-09T07:32:49.089Z,987.40
2023-03-09T07:33:48.996Z,987.41
2023-03-09T07:34:48.972Z,987.42
2023-03-09T07:35:49.108Z,987.50
2023-03-09T07:36:48.980Z,987.53
2023-03-09T07:37:48.953Z,987.59
2023-03-09T07:38:48.957Z,987.57
2023-03-09T07:39:48.928Z,987.57
2023-03-09T07:40:48.994Z,987.57
2023-03-09T07:41:48.881Z,987.67
2023-03-09T07:42:48.925Z,987.63
2023-03-09T07:43:48.903Z,987.63
2023-03-09T07:44:48.871Z,987.67
2023-03-09T07:45:49.029Z,987.68
2023-03-09T07:46:48.960Z,987.68
2023-03-09T07:47:48.849Z,987.71
2023-03-09T07:48:48.844Z,987.77
2023-03-09T07:49:48.821Z,987.79
2023-03-09T07:50:48.790Z,987.74
2023-03-09T07:51:48.845Z,987.77
2023-03-09T07:52:48.764Z,987.88
2023-03-09T07:53:48.781Z,987.90
2023-03-09T07:54:48.758Z,987.85
2023-03-09T07:55:48.759Z,987.83
2023-03-09T07:56:48.721Z,987.82
2023-03-09T07:57:48.723Z,987.93
2023-03-09T07:58:48.764Z,987.98
2023-03-09T07:59:48.680Z,988.09
2023-03-09T08:00:48.710Z,988.02
2023-03-09T08:01:48.700Z,988.13
2023-03-09T08:02:48.708Z,988.09
2023-03-09T08:03:48.777Z,988.04
2023-03-09T08:04:48.917Z,987.99
2023-03-09T08:05:48.667Z,988.02
2023-03-09T08:06:48.617Z,988.04
2023-03-09T08:07:48.671Z,988.14
2023-03-09T08:08:48.624Z,988.21
2023-03-09T08:09:48.585Z,988.16
2023-03-09T08:10:48.682Z,988.14
2023-03-09T08:11:48.574Z,988.17
2023-03-09T08:12:48.620Z,988.14
2023-03-09T08:13:48.553Z,988.18
2023-03-09T08:14:48.520Z,988.25
2023-03-09T08:15:48.514Z,988.32
2023-03-09T08:16:48.543Z,988.30
2023-03-09T08:17:48.508Z,988.32
2023-03-09T08:18:48.478Z,988.34
2023-03-09T08:19:48.493Z,988.30
2023-03-09T08:20:48.461Z,988.30
2023-03-09T08:21:48.464Z,988.28
2023-03-09T08:22:48.449Z,988.33
2023-03-09T08:23:48.420Z,988.35
2023-03-09T08:24:48.437Z,988.42
2023-03-09T08:25:48.403Z,988.41
2023-03-09T08:26:48.472Z,988.42
2023-03-09T08:27:48.404Z,988.44
2023-03-09T08:28:48.413Z,988.49
2023-03-09T08:29:48.355Z,988.46
2023-03-09T08:30:48.344Z,988.45
2023-03-09T08:31:48.450Z,988.42
2023-03-09T08:32:48.449Z,988.46
2023-03-09T08:33:51.153Z,988.55
2023-03-09T08:34:48.333Z,988.60
2023-03-09T08:35:48.304Z,988.57
2023-03-09T08:36:48.282Z,988.56
2023-03-09T08:37:48.313Z,988.68
2023-03-09T08:38:48.253Z,988.64
2023-03-09T08:39:48.272Z,988.58
2023-03-09T08:40:48.251Z,988.63
2023-03-09T08:41:48.240Z,988.77
2023-03-09T08:42:48.221Z,988.74
2023-03-09T08:43:48.217Z,988.70
2023-03-09T08:44:48.191Z,988.73
2023-03-09T08:45:48.194Z,988.82
2023-03-09T08:46:48.184Z,988.85
2023-03-09T08:47:48.173Z,988.77
2023-03-09T08:48:48.196Z,988.77
2023-03-09T08:49:48.195Z,988.76
2023-03-09T08:50:48.126Z,988.79
2023-03-09T08:51:48.207Z,988.81
2023-03-09T08:52:48.102Z,988.87
2023-03-09T08:53:48.131Z,988.85
2023-03-09T08:54:48.159Z,988.82
2023-03-09T08:55:48.065Z,988.84
2023-03-09T08:56:48.141Z,988.87
2023-03-09T08:57:48.052Z,988.91
2023-03-09T08:58:48.105Z,988.86
2023-03-09T08:59:48.048Z,988.83
2023-03-09T09:00:47.996Z,988.87
2023-03-09T09:01:48.098Z,988.91
2023-03-09T09:02:48.171Z,988.87
2023-03-09T09:03:47.976Z,988.93
2023-03-09T09:04:47.978Z,989.01
2023-03-09T09:05:48.069Z,988.97
2023-03-09T09:06:47.943Z,988.98
2023-03-09T09:07:47.961Z,988.96
2023-03-09T09:08:47.936Z,988.97
2023-03-09T09:09:47.945Z,989.03
2023-03-09T09:10:47.921Z,989.10
2023-03-09T09:11:47.897Z,989.12
2023-03-09T09:12:47.880Z,989.15
2023-03-09T09:13:47.880Z,989.21
2023-03-09T09:14:47.875Z,989.21
2023-03-09T09:15:47.887Z,989.21
2023-03-09T09:16:50.315Z,989.24
2023-03-09T09:17:47.827Z,989.30
2023-03-09T09:18:47.823Z,989.29
2023-03-09T09:19:47.813Z,989.28
2023-03-09T09:20:47.796Z,989.32
2023-03-09T09:21:47.788Z,989.34
2023-03-09T09:22:47.785Z,989.34
2023-03-09T09:23:47.805Z,989.38
2023-03-09T09:24:47.725Z,989.41
2023-03-09T09:25:47.759Z,989.42
2023-03-09T09:26:47.701Z,989.45
2023-03-09T09:30:08.445Z,989.58
2023-03-09T09:31:08.383Z,989.54
2023-03-09T09:32:08.481Z,989.58
2023-03-09T09:33:08.283Z,989.57
2023-03-09T09:34:08.284Z,989.59
2023-03-09T09:35:08.248Z,989.57
2023-03-09T09:36:08.389Z,989.58
2023-03-09T09:37:08.254Z,989.60
2023-03-09T09:38:08.247Z,989.58
2023-03-09T09:39:08.257Z,989.56
2023-03-09T09:40:08.202Z,989.58
2023-03-09T09:41:08.374Z,989.59
2023-03-09T09:42:08.168Z,989.62
2023-03-09T09:43:08.165Z,989.65
2023-03-09T09:44:08.203Z,989.76
2023-03-09T09:45:08.168Z,989.71
2023-03-09T09:46:08.224Z,989.65
2023-03-09T09:47:08.266Z,989.66
2023-03-09T09:48:08.133Z,989.72
2023-03-09T09:49:19.416Z,989.66
2023-03-09T09:50:09.096Z,989.70
2023-03-09T09:51:08.093Z,989.70
2023-03-09T09:52:08.055Z,989.70
2023-03-09T09:53:08.094Z,989.78
2023-03-09T09:54:08.380Z,989.78
2023-03-09T09:55:08.040Z,989.78
2023-03-09T09:56:08.014Z,989.77
2023-03-09T09:57:08.003Z,989.79
2023-03-09T09:58:08.044Z,989.83
2023-03-09T09:59:11.696Z,989.80
2023-03-09T10:00:09.018Z,989.78
2023-03-09T10:01:08.076Z,989.78
2023-03-09T10:02:08.060Z,989.83
2023-03-09T10:03:08.100Z,989.78
2023-03-09T10:04:08.056Z,989.85
2023-03-09T10:05:07.917Z,989.79
2023-03-09T10:06:07.910Z,989.79
2023-03-09T10:07:07.931Z,989.85
2023-03-09T10:08:07.906Z,989.80
2023-03-09T10:09:08.005Z,989.82
2023-03-09T10:10:08.048Z,989.78
2023-03-09T10:11:08.065Z,989.76
2023-03-09T10:12:08.024Z,989.83
2023-03-09T10:13:07.904Z,989.77
2023-03-09T10:14:07.879Z,989.76
2023-03-09T10:15:07.902Z,989.73
2023-03-09T10:16:09.504Z,989.76
2023-03-09T10:17:08.080Z,989.81
2023-03-09T10:18:07.998Z,989.80
2023-03-09T10:19:07.867Z,989.86
2023-03-09T10:20:07.846Z,989.85
2023-03-09T10:21:07.738Z,989.88
2023-03-09T10:22:07.815Z,989.89
2023-03-09T10:23:07.741Z,989.83
2023-03-09T10:24:07.779Z,989.85
2023-03-09T10:25:07.744Z,989.87
2023-03-09T10:26:08.595Z,989.91
2023-03-09T10:27:07.694Z,989.91
2023-03-09T10:28:07.662Z,989.97
2023-03-09T10:29:07.673Z,989.98
2023-03-09T10:30:12.009Z,990.03
2023-03-09T10:31:07.735Z,990.12
2023-03-09T10:32:07.678Z,990.04
2023-03-09T10:33:07.625Z,990.04
2023-03-09T10:34:07.594Z,990.07
2023-03-09T10:35:07.582Z,990.11
2023-03-09T10:36:07.597Z,990.04
2023-03-09T10:37:07.559Z,990.05
2023-03-09T10:38:07.555Z,990.06
2023-03-09T10:39:07.712Z,990.09
2023-03-09T10:40:07.535Z,990.12
2023-03-09T10:41:07.578Z,990.15
2023-03-09T10:42:08.123Z,990.14
2023-03-09T10:43:07.555Z,990.16
2023-03-09T10:44:07.489Z,990.22
2023-03-09T10:45:07.515Z,990.21
2023-03-09T10:46:07.672Z,990.22
2023-03-09T10:47:07.549Z,990.23
2023-03-09T10:48:08.078Z,990.24
2023-03-09T10:49:07.415Z,990.20
2023-03-09T10:50:14.906Z,990.16
2023-03-09T10:51:08.448Z,990.18
2023-03-09T10:52:07.449Z,990.21
2023-03-09T10:53:07.390Z,990.23
2023-03-09T10:54:07.353Z,990.35
2023-03-09T10:55:07.334Z,990.34
2023-03-09T10:56:07.363Z,990.29
2023-03-09T10:57:07.357Z,990.31
2023-03-09T10:58:07.310Z,990.27
2023-03-09T10:59:07.301Z,990.32
2023-03-09T11:00:07.297Z,990.33
2023-03-09T11:01:07.329Z,990.33
2023-03-09T11:02:07.288Z,990.35
2023-03-09T11:03:07.277Z,990.37
2023-03-09T11:04:07.368Z,990.39
2023-03-09T11:05:07.234Z,990.36
2023-03-09T11:06:07.300Z,990.34
2023-03-09T11:07:07.243Z,990.34
2023-03-09T11:08:07.274Z,990.33
2023-03-09T11:09:15.031Z,990.34
2023-03-09T11:10:08.188Z,990.37
2023-03-09T11:11:07.190Z,990.38
2023-03-09T11:12:07.174Z,990.41
2023-03-09T11:13:07.167Z,990.45
2023-03-09T11:14:07.171Z,990.40
2023-03-09T11:15:07.145Z,990.41
2023-03-09T11:16:07.118Z,990.46
2023-03-09T11:17:07.244Z,990.46
2023-03-09T11:18:07.075Z,990.43
2023-03-09T11:19:07.318Z,990.45
2023-03-09T11:20:07.083Z,990.46
2023-03-09T11:21:07.109Z,990.45
2023-03-09T11:22:07.239Z,990.45
2023-03-09T11:23:07.054Z,990.46
2023-03-09T11:24:18.769Z,990.49
2023-03-09T11:25:08.043Z,990.42
2023-03-09T11:26:07.563Z,990.30
2023-03-09T11:27:07.002Z,990.27
2023-03-09T11:28:06.967Z,990.30
2023-03-09T11:29:07.024Z,990.28
2023-03-09T11:30:06.972Z,990.25
2023-03-09T11:31:07.112Z,990.25
2023-03-09T11:32:07.036Z,990.27
2023-03-09T11:33:07.077Z,990.28
2023-03-09T11:34:06.924Z,990.24
2023-03-09T11:35:06.968Z,990.25
2023-03-09T11:36:06.926Z,990.28
2023-03-09T11:37:06.907Z,990.30
2023-03-09T11:38:06.931Z,990.28
2023-03-09T11:39:06.987Z,990.25
2023-03-09T11:40:06.998Z,990.25
2023-03-09T11:41:06.888Z,990.30
2023-03-09T11:42:06.829Z,990.29
2023-03-09T11:43:06.933Z,990.24
2023-03-09T11:44:06.802Z,990.22
2023-03-09T11:45:06.916Z,990.22
2023-03-09T11:46:06.934Z,990.20
2023-03-09T11:47:06.894Z,990.11
2023-03-09T11:48:06.829Z,990.05
2023-03-09T11:49:06.773Z,990.08
2023-03-09T11:50:06.790Z,990.10
2023-03-09T11:51:06.719Z,990.16
2023-03-09T11:52:06.688Z,990.18
2023-03-09T11:53:06.686Z,990.14
2023-03-09T11:54:06.688Z,990.10
2023-03-09T11:55:06.665Z,990.10
2023-03-09T11:56:06.649Z,990.09
2023-03-09T11:57:09.175Z,990.12
2023-03-09T11:58:06.635Z,990.14
2023-03-09T11:59:06.636Z,990.12
2023-03-09T12:00:06.671Z,990.08
2023-03-09T12:01:06.621Z,990.15
2023-03-09T12:02:06.708Z,990.10
2023-03-09T12:03:10.831Z,990.15
2023-03-09T12:04:07.672Z,990.13
2023-03-09T12:05:06.565Z,990.14
2023-03-09T12:06:06.562Z,990.09
2023-03-09T12:07:06.534Z,990.11
2023-03-09T12:08:07.166Z,990.10
2023-03-09T12:09:06.523Z,990.15
2023-03-09T12:10:06.495Z,990.15
2023-03-09T12:11:06.488Z,990.12
2023-03-09T12:12:06.467Z,990.10
2023-03-09T12:13:06.511Z,990.09
2023-03-09T12:14:06.463Z,990.12
2023-03-09T12:15:06.646Z,990.09
2023-03-09T12:16:06.480Z,990.09
2023-03-09T12:17:07.198Z,990.09
2023-03-09T12:18:06.426Z,990.19
2023-03-09T12:19:06.407Z,990.16
2023-03-09T12:20:06.554Z,990.12
2023-03-09T12:21:06.388Z,990.14
2023-03-09T12:22:06.346Z,990.13
2023-03-09T12:23:06.352Z,990.07
2023-03-09T12:24:06.339Z,990.16
2023-03-09T12:25:06.311Z,990.13
2023-03-09T12:26:06.307Z,990.09
2023-03-09T12:27:07.819Z,990.11
2023-03-09T12:28:06.319Z,990.15
2023-03-09T12:29:06.332Z,990.21
2023-03-09T12:30:06.309Z,990.20
2023-03-09T12:31:06.324Z,990.18